sensor_id;sensor_type;location;lat;lon;timestamp;P1;durP1;ratioP1;P2;durP2;ratioP2
17997;SDS011;9124;48.144;17.098;2022-11-20T00:00:37;35.38;;;17.75;;
17997;SDS011;9124;48.144;17.098;2022-11-20T00:04:15;33.22;;;17.50;;
17997;SDS011;9124;48.144;17.098;2022-11-20T00:07:51;35.95;;;16.58;;
17997;SDS011;9124;48.144;17.098;2022-11-20T00:11:29;30.48;;;16.63;;
17997;SDS011;9124;48.144;17.098;2022-11-20T00:15:06;33.35;;;16.95;;
17997;SDS011;9124;48.144;17.098;2022-11-20T00:18:43;34.35;;;16.38;;
17997;SDS011;9124;48.144;17.098;2022-11-20T00:22:20;29.38;;;15.85;;
17997;SDS011;9124;48.144;17.098;2022-11-20T00:26:00;27.83;;;14.98;;
17997;SDS011;9124;48.144;17.098;2022-11-20T00:29:44;23.00;;;14.32;;
17997;SDS011;9124;48.144;17.098;2022-11-20T00:33:21;25.73;;;14.00;;
17997;SDS011;9124;48.144;17.098;2022-11-20T00:36:57;24.70;;;15.48;;
17997;SDS011;9124;48.144;17.098;2022-11-20T00:40:34;27.02;;;15.45;;
17997;SDS011;9124;48.144;17.098;2022-11-20T00:44:10;27.77;;;15.10;;
17997;SDS011;9124;48.144;17.098;2022-11-20T00:47:47;29.10;;;15.90;;
17997;SDS011;9124;48.144;17.098;2022-11-20T00:51:24;30.05;;;16.25;;
17997;SDS011;9124;48.144;17.098;2022-11-20T00:55:02;28.08;;;14.80;;
17997;SDS011;9124;48.144;17.098;2022-11-20T00:58:40;28.70;;;15.43;;
17997;SDS011;9124;48.144;17.098;2022-11-20T01:02:18;26.92;;;14.95;;
17997;SDS011;9124;48.144;17.098;2022-11-20T01:05:55;29.92;;;15.00;;
17997;SDS011;9124;48.144;17.098;2022-11-20T01:09:37;33.22;;;16.83;;
17997;SDS011;9124;48.144;17.098;2022-11-20T01:13:14;26.63;;;16.02;;
17997;SDS011;9124;48.144;17.098;2022-11-20T01:17:09;31.50;;;18.73;;
17997;SDS011;9124;48.144;17.098;2022-11-20T01:20:45;35.17;;;17.52;;
17997;SDS011;9124;48.144;17.098;2022-11-20T01:24:22;39.05;;;18.63;;
17997;SDS011;9124;48.144;17.098;2022-11-20T01:27:58;37.05;;;19.63;;
17997;SDS011;9124;48.144;17.098;2022-11-20T01:31:36;45.83;;;21.10;;
17997;SDS011;9124;48.144;17.098;2022-11-20T01:35:12;45.17;;;22.25;;
17997;SDS011;9124;48.144;17.098;2022-11-20T01:38:52;52.13;;;22.30;;
17997;SDS011;9124;48.144;17.098;2022-11-20T01:42:33;45.33;;;22.33;;
17997;SDS011;9124;48.144;17.098;2022-11-20T01:46:29;40.13;;;20.23;;
17997;SDS011;9124;48.144;17.098;2022-11-20T01:50:19;39.17;;;19.65;;
17997;SDS011;9124;48.144;17.098;2022-11-20T01:54:02;39.47;;;19.33;;
17997;SDS011;9124;48.144;17.098;2022-11-20T01:57:41;35.75;;;19.02;;
17997;SDS011;9124;48.144;17.098;2022-11-20T02:01:20;28.33;;;15.63;;
17997;SDS011;9124;48.144;17.098;2022-11-20T02:04:58;33.45;;;17.40;;
17997;SDS011;9124;48.144;17.098;2022-11-20T02:08:40;28.75;;;17.27;;
17997;SDS011;9124;48.144;17.098;2022-11-20T02:12:16;29.83;;;16.27;;
17997;SDS011;9124;48.144;17.098;2022-11-20T02:16:21;28.23;;;15.10;;
17997;SDS011;9124;48.144;17.098;2022-11-20T02:20:11;25.98;;;14.80;;
17997;SDS011;9124;48.144;17.098;2022-11-20T02:27:40;29.40;;;15.05;;
17997;SDS011;9124;48.144;17.098;2022-11-20T02:31:16;26.80;;;15.60;;
17997;SDS011;9124;48.144;17.098;2022-11-20T02:34:53;31.00;;;16.65;;
17997;SDS011;9124;48.144;17.098;2022-11-20T02:38:31;29.52;;;16.52;;
17997;SDS011;9124;48.144;17.098;2022-11-20T02:42:07;33.13;;;17.13;;
17997;SDS011;9124;48.144;17.098;2022-11-20T02:45:44;32.30;;;16.85;;
17997;SDS011;9124;48.144;17.098;2022-11-20T02:49:21;31.20;;;16.45;;
17997;SDS011;9124;48.144;17.098;2022-11-20T02:52:57;32.72;;;17.23;;
17997;SDS011;9124;48.144;17.098;2022-11-20T02:56:33;34.38;;;18.75;;
17997;SDS011;9124;48.144;17.098;2022-11-20T03:00:10;39.80;;;19.38;;
17997;SDS011;9124;48.144;17.098;2022-11-20T03:03:47;37.42;;;19.27;;
17997;SDS011;9124;48.144;17.098;2022-11-20T03:07:24;38.03;;;19.30;;
17997;SDS011;9124;48.144;17.098;2022-11-20T03:11:10;38.63;;;20.35;;
17997;SDS011;9124;48.144;17.098;2022-11-20T03:14:47;38.55;;;19.00;;
17997;SDS011;9124;48.144;17.098;2022-11-20T03:18:23;44.53;;;20.40;;
17997;SDS011;9124;48.144;17.098;2022-11-20T03:22:02;37.20;;;19.73;;
17997;SDS011;9124;48.144;17.098;2022-11-20T03:25:39;40.22;;;19.63;;
17997;SDS011;9124;48.144;17.098;2022-11-20T03:29:15;42.08;;;19.48;;
17997;SDS011;9124;48.144;17.098;2022-11-20T03:32:53;33.90;;;19.50;;
17997;SDS011;9124;48.144;17.098;2022-11-20T03:36:30;42.20;;;20.73;;
17997;SDS011;9124;48.144;17.098;2022-11-20T03:40:07;33.50;;;20.60;;
17997;SDS011;9124;48.144;17.098;2022-11-20T03:43:47;41.08;;;21.75;;
17997;SDS011;9124;48.144;17.098;2022-11-20T03:47:25;39.13;;;19.77;;
17997;SDS011;9124;48.144;17.098;2022-11-20T03:54:52;40.83;;;20.02;;
17997;SDS011;9124;48.144;17.098;2022-11-20T03:58:28;43.75;;;20.98;;
17997;SDS011;9124;48.144;17.098;2022-11-20T04:02:05;39.55;;;19.80;;
17997;SDS011;9124;48.144;17.098;2022-11-20T04:05:41;40.80;;;20.38;;
17997;SDS011;9124;48.144;17.098;2022-11-20T04:09:17;35.45;;;19.55;;
17997;SDS011;9124;48.144;17.098;2022-11-20T04:12:54;39.85;;;20.17;;
17997;SDS011;9124;48.144;17.098;2022-11-20T04:16:34;36.20;;;18.05;;
17997;SDS011;9124;48.144;17.098;2022-11-20T04:20:11;41.35;;;20.00;;
17997;SDS011;9124;48.144;17.098;2022-11-20T04:23:48;34.30;;;17.83;;
17997;SDS011;9124;48.144;17.098;2022-11-20T04:27:26;34.05;;;18.10;;
17997;SDS011;9124;48.144;17.098;2022-11-20T04:31:06;34.42;;;18.23;;
17997;SDS011;9124;48.144;17.098;2022-11-20T04:34:51;44.33;;;20.48;;
17997;SDS011;9124;48.144;17.098;2022-11-20T04:38:28;42.38;;;20.80;;
17997;SDS011;9124;48.144;17.098;2022-11-20T04:42:04;47.25;;;21.90;;
17997;SDS011;9124;48.144;17.098;2022-11-20T04:45:59;51.78;;;23.42;;
17997;SDS011;9124;48.144;17.098;2022-11-20T04:49:36;47.17;;;22.65;;
17997;SDS011;9124;48.144;17.098;2022-11-20T04:53:13;49.05;;;23.95;;
17997;SDS011;9124;48.144;17.098;2022-11-20T04:56:50;62.95;;;26.90;;
17997;SDS011;9124;48.144;17.098;2022-11-20T05:00:27;62.17;;;24.08;;
17997;SDS011;9124;48.144;17.098;2022-11-20T05:04:03;63.17;;;26.00;;
17997;SDS011;9124;48.144;17.098;2022-11-20T05:07:41;61.47;;;25.42;;
17997;SDS011;9124;48.144;17.098;2022-11-20T05:11:19;61.80;;;26.58;;
17997;SDS011;9124;48.144;17.098;2022-11-20T05:14:56;58.55;;;25.88;;
17997;SDS011;9124;48.144;17.098;2022-11-20T05:18:33;53.30;;;23.33;;
17997;SDS011;9124;48.144;17.098;2022-11-20T05:22:10;53.03;;;25.00;;
17997;SDS011;9124;48.144;17.098;2022-11-20T05:25:47;47.03;;;23.05;;
17997;SDS011;9124;48.144;17.098;2022-11-20T05:29:27;47.35;;;22.23;;
17997;SDS011;9124;48.144;17.098;2022-11-20T05:33:03;46.78;;;22.15;;
17997;SDS011;9124;48.144;17.098;2022-11-20T05:36:39;46.35;;;21.73;;
17997;SDS011;9124;48.144;17.098;2022-11-20T05:40:17;47.95;;;21.17;;
17997;SDS011;9124;48.144;17.098;2022-11-20T05:43:53;53.85;;;22.38;;
17997;SDS011;9124;48.144;17.098;2022-11-20T05:47:32;43.83;;;21.42;;
17997;SDS011;9124;48.144;17.098;2022-11-20T05:51:10;49.05;;;21.25;;
17997;SDS011;9124;48.144;17.098;2022-11-20T05:54:48;48.72;;;21.83;;
17997;SDS011;9124;48.144;17.098;2022-11-20T05:58:25;41.38;;;21.48;;
17997;SDS011;9124;48.144;17.098;2022-11-20T06:02:01;50.22;;;21.45;;
17997;SDS011;9124;48.144;17.098;2022-11-20T06:05:38;46.47;;;23.23;;
17997;SDS011;9124;48.144;17.098;2022-11-20T06:09:14;39.45;;;20.83;;
17997;SDS011;9124;48.144;17.098;2022-11-20T06:12:51;42.67;;;20.30;;
17997;SDS011;9124;48.144;17.098;2022-11-20T06:16:27;39.25;;;19.90;;
17997;SDS011;9124;48.144;17.098;2022-11-20T06:20:04;43.35;;;20.13;;
17997;SDS011;9124;48.144;17.098;2022-11-20T06:23:41;38.50;;;20.55;;
17997;SDS011;9124;48.144;17.098;2022-11-20T06:27:18;44.72;;;20.48;;
17997;SDS011;9124;48.144;17.098;2022-11-20T06:30:54;42.05;;;19.95;;
17997;SDS011;9124;48.144;17.098;2022-11-20T06:34:31;41.95;;;21.15;;
17997;SDS011;9124;48.144;17.098;2022-11-20T06:38:08;41.40;;;20.35;;
17997;SDS011;9124;48.144;17.098;2022-11-20T06:41:44;44.55;;;20.83;;
17997;SDS011;9124;48.144;17.098;2022-11-20T06:45:21;43.28;;;20.25;;
17997;SDS011;9124;48.144;17.098;2022-11-20T06:48:57;40.20;;;21.38;;
17997;SDS011;9124;48.144;17.098;2022-11-20T06:52:34;47.65;;;21.70;;
17997;SDS011;9124;48.144;17.098;2022-11-20T06:56:10;46.83;;;21.48;;
17997;SDS011;9124;48.144;17.098;2022-11-20T06:59:47;52.13;;;22.70;;
17997;SDS011;9124;48.144;17.098;2022-11-20T07:03:24;40.80;;;19.77;;
17997;SDS011;9124;48.144;17.098;2022-11-20T07:07:00;28.67;;;16.48;;
17997;SDS011;9124;48.144;17.098;2022-11-20T07:10:37;30.92;;;16.77;;
17997;SDS011;9124;48.144;17.098;2022-11-20T07:14:13;35.42;;;16.08;;
17997;SDS011;9124;48.144;17.098;2022-11-20T07:17:49;29.67;;;17.08;;
17997;SDS011;9124;48.144;17.098;2022-11-20T07:21:26;35.05;;;18.13;;
17997;SDS011;9124;48.144;17.098;2022-11-20T07:25:02;35.85;;;17.25;;
17997;SDS011;9124;48.144;17.098;2022-11-20T07:28:39;30.90;;;18.45;;
17997;SDS011;9124;48.144;17.098;2022-11-20T07:32:16;26.67;;;15.18;;
17997;SDS011;9124;48.144;17.098;2022-11-20T07:35:52;29.83;;;15.98;;
17997;SDS011;9124;48.144;17.098;2022-11-20T07:39:28;27.25;;;15.23;;
17997;SDS011;9124;48.144;17.098;2022-11-20T07:43:05;30.98;;;16.23;;
17997;SDS011;9124;48.144;17.098;2022-11-20T07:46:41;25.08;;;15.85;;
17997;SDS011;9124;48.144;17.098;2022-11-20T07:50:18;29.23;;;15.95;;
17997;SDS011;9124;48.144;17.098;2022-11-20T07:53:55;28.08;;;17.17;;
17997;SDS011;9124;48.144;17.098;2022-11-20T07:57:32;26.92;;;15.50;;
17997;SDS011;9124;48.144;17.098;2022-11-20T08:01:08;29.70;;;15.32;;
17997;SDS011;9124;48.144;17.098;2022-11-20T08:04:46;28.92;;;16.08;;
17997;SDS011;9124;48.144;17.098;2022-11-20T08:08:22;29.25;;;16.55;;
17997;SDS011;9124;48.144;17.098;2022-11-20T08:11:59;27.45;;;14.75;;
17997;SDS011;9124;48.144;17.098;2022-11-20T08:15:54;23.13;;;14.88;;
17997;SDS011;9124;48.144;17.098;2022-11-20T08:19:31;22.05;;;13.50;;
17997;SDS011;9124;48.144;17.098;2022-11-20T08:23:07;25.95;;;15.57;;
17997;SDS011;9124;48.144;17.098;2022-11-20T08:26:44;33.42;;;17.05;;
17997;SDS011;9124;48.144;17.098;2022-11-20T08:30:20;26.38;;;14.95;;
17997;SDS011;9124;48.144;17.098;2022-11-20T08:33:57;26.33;;;14.65;;
17997;SDS011;9124;48.144;17.098;2022-11-20T08:37:33;28.55;;;15.18;;
17997;SDS011;9124;48.144;17.098;2022-11-20T08:41:10;32.00;;;15.45;;
17997;SDS011;9124;48.144;17.098;2022-11-20T08:45:07;33.20;;;15.68;;
17997;SDS011;9124;48.144;17.098;2022-11-20T08:48:44;28.40;;;15.63;;
17997;SDS011;9124;48.144;17.098;2022-11-20T08:52:20;27.50;;;16.05;;
17997;SDS011;9124;48.144;17.098;2022-11-20T08:55:57;36.50;;;17.77;;
17997;SDS011;9124;48.144;17.098;2022-11-20T08:59:33;32.70;;;16.90;;
17997;SDS011;9124;48.144;17.098;2022-11-20T09:03:10;27.45;;;15.57;;
17997;SDS011;9124;48.144;17.098;2022-11-20T09:06:48;28.17;;;16.88;;
17997;SDS011;9124;48.144;17.098;2022-11-20T09:10:28;33.80;;;16.85;;
17997;SDS011;9124;48.144;17.098;2022-11-20T09:14:04;40.95;;;16.85;;
17997;SDS011;9124;48.144;17.098;2022-11-20T09:17:41;34.15;;;17.75;;
17997;SDS011;9124;48.144;17.098;2022-11-20T09:21:17;42.20;;;17.98;;
17997;SDS011;9124;48.144;17.098;2022-11-20T09:24:54;34.25;;;18.17;;
17997;SDS011;9124;48.144;17.098;2022-11-20T09:28:31;35.63;;;18.08;;
17997;SDS011;9124;48.144;17.098;2022-11-20T09:32:08;33.72;;;17.88;;
17997;SDS011;9124;48.144;17.098;2022-11-20T09:35:44;35.15;;;17.90;;
17997;SDS011;9124;48.144;17.098;2022-11-20T09:39:21;40.50;;;17.10;;
17997;SDS011;9124;48.144;17.098;2022-11-20T09:46:58;37.75;;;18.33;;
17997;SDS011;9124;48.144;17.098;2022-11-20T09:54:35;31.88;;;17.77;;
17997;SDS011;9124;48.144;17.098;2022-11-20T09:58:38;47.40;;;18.27;;
17997;SDS011;9124;48.144;17.098;2022-11-20T10:06:00;35.42;;;18.00;;
17997;SDS011;9124;48.144;17.098;2022-11-20T10:09:39;36.40;;;18.13;;
17997;SDS011;9124;48.144;17.098;2022-11-20T10:32:48;39.95;;;20.33;;
17997;SDS011;9124;48.144;17.098;2022-11-20T10:36:59;51.35;;;21.42;;
17997;SDS011;9124;48.144;17.098;2022-11-20T10:40:42;45.75;;;20.58;;
17997;SDS011;9124;48.144;17.098;2022-11-20T10:44:22;45.47;;;20.85;;
17997;SDS011;9124;48.144;17.098;2022-11-20T10:48:22;54.58;;;23.58;;
17997;SDS011;9124;48.144;17.098;2022-11-20T10:52:15;44.78;;;21.88;;
17997;SDS011;9124;48.144;17.098;2022-11-20T10:56:08;47.10;;;20.98;;
17997;SDS011;9124;48.144;17.098;2022-11-20T10:59:55;48.63;;;21.63;;
17997;SDS011;9124;48.144;17.098;2022-11-20T11:03:38;51.95;;;20.80;;
17997;SDS011;9124;48.144;17.098;2022-11-20T11:07:26;45.40;;;21.02;;
17997;SDS011;9124;48.144;17.098;2022-11-20T11:11:20;49.65;;;21.88;;
17997;SDS011;9124;48.144;17.098;2022-11-20T11:15:03;51.95;;;21.80;;
17997;SDS011;9124;48.144;17.098;2022-11-20T11:18:40;40.40;;;21.10;;
17997;SDS011;9124;48.144;17.098;2022-11-20T11:22:19;43.08;;;20.05;;
17997;SDS011;9124;48.144;17.098;2022-11-20T11:25:57;41.45;;;19.75;;
17997;SDS011;9124;48.144;17.098;2022-11-20T11:29:35;39.70;;;20.35;;
17997;SDS011;9124;48.144;17.098;2022-11-20T11:33:18;32.72;;;18.08;;
17997;SDS011;9124;48.144;17.098;2022-11-20T11:37:00;37.47;;;19.42;;
17997;SDS011;9124;48.144;17.098;2022-11-20T11:40:39;39.00;;;18.55;;
17997;SDS011;9124;48.144;17.098;2022-11-20T11:48:15;41.03;;;18.92;;
17997;SDS011;9124;48.144;17.098;2022-11-20T12:03:34;41.97;;;20.77;;
17997;SDS011;9124;48.144;17.098;2022-11-20T12:11:05;32.88;;;18.83;;
17997;SDS011;9124;48.144;17.098;2022-11-20T12:14:51;40.78;;;20.75;;
17997;SDS011;9124;48.144;17.098;2022-11-20T12:18:31;42.20;;;20.02;;
17997;SDS011;9124;48.144;17.098;2022-11-20T12:26:27;34.42;;;19.50;;
17997;SDS011;9124;48.144;17.098;2022-11-20T12:30:20;39.75;;;20.35;;
17997;SDS011;9124;48.144;17.098;2022-11-20T12:34:02;39.47;;;20.48;;
17997;SDS011;9124;48.144;17.098;2022-11-20T12:46:18;36.40;;;21.05;;
17997;SDS011;9124;48.144;17.098;2022-11-20T12:54:31;40.78;;;19.92;;
17997;SDS011;9124;48.144;17.098;2022-11-20T13:06:15;38.13;;;19.65;;
17997;SDS011;9124;48.144;17.098;2022-11-20T13:09:55;39.85;;;21.08;;
17997;SDS011;9124;48.144;17.098;2022-11-20T13:17:36;37.58;;;20.27;;
17997;SDS011;9124;48.144;17.098;2022-11-20T13:25:31;34.83;;;19.95;;
17997;SDS011;9124;48.144;17.098;2022-11-20T13:29:18;35.97;;;20.05;;
17997;SDS011;9124;48.144;17.098;2022-11-20T13:36:36;34.63;;;18.77;;
17997;SDS011;9124;48.144;17.098;2022-11-20T13:40:29;37.15;;;19.23;;
17997;SDS011;9124;48.144;17.098;2022-11-20T13:47:48;30.58;;;18.27;;
17997;SDS011;9124;48.144;17.098;2022-11-20T14:02:59;31.70;;;16.48;;
17997;SDS011;9124;48.144;17.098;2022-11-20T14:06:57;35.85;;;17.20;;
17997;SDS011;9124;48.144;17.098;2022-11-20T14:10:35;33.00;;;18.85;;
17997;SDS011;9124;48.144;17.098;2022-11-20T14:14:27;27.67;;;16.08;;
17997;SDS011;9124;48.144;17.098;2022-11-20T14:18:18;33.70;;;16.85;;
17997;SDS011;9124;48.144;17.098;2022-11-20T14:22:08;33.85;;;19.05;;
17997;SDS011;9124;48.144;17.098;2022-11-20T14:25:45;30.38;;;17.70;;
17997;SDS011;9124;48.144;17.098;2022-11-20T14:29:23;31.13;;;17.67;;
17997;SDS011;9124;48.144;17.098;2022-11-20T14:33:03;33.70;;;18.02;;
17997;SDS011;9124;48.144;17.098;2022-11-20T14:36:41;39.33;;;18.13;;
17997;SDS011;9124;48.144;17.098;2022-11-20T14:44:08;37.83;;;18.80;;
17997;SDS011;9124;48.144;17.098;2022-11-20T14:47:46;29.55;;;18.15;;
17997;SDS011;9124;48.144;17.098;2022-11-20T14:51:31;32.58;;;18.15;;
17997;SDS011;9124;48.144;17.098;2022-11-20T14:55:33;34.58;;;18.10;;
17997;SDS011;9124;48.144;17.098;2022-11-20T14:59:09;37.28;;;19.80;;
17997;SDS011;9124;48.144;17.098;2022-11-20T15:02:47;33.63;;;18.85;;
17997;SDS011;9124;48.144;17.098;2022-11-20T15:06:25;37.22;;;19.35;;
17997;SDS011;9124;48.144;17.098;2022-11-20T15:13:44;35.00;;;19.73;;
17997;SDS011;9124;48.144;17.098;2022-11-20T15:17:21;34.33;;;19.45;;
17997;SDS011;9124;48.144;17.098;2022-11-20T15:21:00;35.47;;;18.63;;
17997;SDS011;9124;48.144;17.098;2022-11-20T15:24:39;30.92;;;18.65;;
17997;SDS011;9124;48.144;17.098;2022-11-20T15:31:55;37.10;;;19.63;;
17997;SDS011;9124;48.144;17.098;2022-11-20T15:35:32;34.03;;;19.23;;
17997;SDS011;9124;48.144;17.098;2022-11-20T15:39:09;35.95;;;18.83;;
17997;SDS011;9124;48.144;17.098;2022-11-20T15:42:46;39.28;;;19.50;;
17997;SDS011;9124;48.144;17.098;2022-11-20T15:46:39;39.58;;;20.38;;
17997;SDS011;9124;48.144;17.098;2022-11-20T15:50:18;32.60;;;19.42;;
17997;SDS011;9124;48.144;17.098;2022-11-20T15:53:56;35.92;;;19.98;;
17997;SDS011;9124;48.144;17.098;2022-11-20T15:57:33;40.00;;;20.98;;
17997;SDS011;9124;48.144;17.098;2022-11-20T16:01:17;41.28;;;20.48;;
17997;SDS011;9124;48.144;17.098;2022-11-20T16:04:56;36.65;;;19.60;;
17997;SDS011;9124;48.144;17.098;2022-11-20T16:08:33;36.20;;;19.65;;
17997;SDS011;9124;48.144;17.098;2022-11-20T16:12:10;39.55;;;20.63;;
17997;SDS011;9124;48.144;17.098;2022-11-20T16:16:31;32.47;;;18.63;;
17997;SDS011;9124;48.144;17.098;2022-11-20T16:20:11;36.88;;;19.15;;
17997;SDS011;9124;48.144;17.098;2022-11-20T16:23:47;39.00;;;19.85;;
17997;SDS011;9124;48.144;17.098;2022-11-20T16:27:24;39.78;;;21.15;;
17997;SDS011;9124;48.144;17.098;2022-11-20T16:31:07;37.83;;;20.15;;
17997;SDS011;9124;48.144;17.098;2022-11-20T16:34:52;38.85;;;19.98;;
17997;SDS011;9124;48.144;17.098;2022-11-20T16:38:28;45.08;;;22.20;;
17997;SDS011;9124;48.144;17.098;2022-11-20T16:42:05;38.63;;;21.00;;
17997;SDS011;9124;48.144;17.098;2022-11-20T16:45:42;40.15;;;20.65;;
17997;SDS011;9124;48.144;17.098;2022-11-20T16:49:20;41.33;;;20.83;;
17997;SDS011;9124;48.144;17.098;2022-11-20T16:52:56;39.40;;;20.60;;
17997;SDS011;9124;48.144;17.098;2022-11-20T16:56:33;41.95;;;21.42;;
17997;SDS011;9124;48.144;17.098;2022-11-20T17:00:09;36.83;;;19.77;;
17997;SDS011;9124;48.144;17.098;2022-11-20T17:03:53;38.78;;;21.08;;
17997;SDS011;9124;48.144;17.098;2022-11-20T17:07:32;44.83;;;22.95;;
17997;SDS011;9124;48.144;17.098;2022-11-20T17:11:09;38.47;;;21.67;;
17997;SDS011;9124;48.144;17.098;2022-11-20T17:14:50;38.85;;;19.55;;
17997;SDS011;9124;48.144;17.098;2022-11-20T17:18:27;43.90;;;20.83;;
17997;SDS011;9124;48.144;17.098;2022-11-20T17:22:03;45.20;;;22.20;;
17997;SDS011;9124;48.144;17.098;2022-11-20T17:25:40;44.63;;;22.40;;
17997;SDS011;9124;48.144;17.098;2022-11-20T17:29:17;45.60;;;22.42;;
17997;SDS011;9124;48.144;17.098;2022-11-20T17:32:59;41.20;;;21.63;;
17997;SDS011;9124;48.144;17.098;2022-11-20T17:36:35;47.33;;;23.50;;
17997;SDS011;9124;48.144;17.098;2022-11-20T17:40:14;47.40;;;23.73;;
17997;SDS011;9124;48.144;17.098;2022-11-20T17:43:54;46.47;;;23.10;;
17997;SDS011;9124;48.144;17.098;2022-11-20T17:47:34;46.35;;;23.90;;
17997;SDS011;9124;48.144;17.098;2022-11-20T17:51:14;52.17;;;24.80;;
17997;SDS011;9124;48.144;17.098;2022-11-20T17:54:56;48.22;;;24.20;;
17997;SDS011;9124;48.144;17.098;2022-11-20T17:58:32;49.35;;;26.83;;
17997;SDS011;9124;48.144;17.098;2022-11-20T18:02:08;54.22;;;27.42;;
17997;SDS011;9124;48.144;17.098;2022-11-20T18:05:47;44.45;;;23.15;;
17997;SDS011;9124;48.144;17.098;2022-11-20T18:09:24;44.03;;;22.88;;
17997;SDS011;9124;48.144;17.098;2022-11-20T18:13:00;48.13;;;24.77;;
17997;SDS011;9124;48.144;17.098;2022-11-20T18:16:38;53.58;;;25.67;;
17997;SDS011;9124;48.144;17.098;2022-11-20T18:20:19;46.17;;;23.88;;
17997;SDS011;9124;48.144;17.098;2022-11-20T18:23:56;54.05;;;26.88;;
17997;SDS011;9124;48.144;17.098;2022-11-20T18:27:33;48.88;;;24.90;;
17997;SDS011;9124;48.144;17.098;2022-11-20T18:31:09;50.50;;;24.85;;
17997;SDS011;9124;48.144;17.098;2022-11-20T18:34:46;42.97;;;24.27;;
17997;SDS011;9124;48.144;17.098;2022-11-20T18:38:22;54.33;;;25.95;;
17997;SDS011;9124;48.144;17.098;2022-11-20T18:41:59;50.03;;;25.40;;
17997;SDS011;9124;48.144;17.098;2022-11-20T18:46:00;52.15;;;25.42;;
17997;SDS011;9124;48.144;17.098;2022-11-20T18:49:39;51.05;;;25.60;;
17997;SDS011;9124;48.144;17.098;2022-11-20T18:53:17;55.22;;;27.25;;
17997;SDS011;9124;48.144;17.098;2022-11-20T18:56:53;54.30;;;26.42;;
17997;SDS011;9124;48.144;17.098;2022-11-20T19:00:29;48.63;;;25.13;;
17997;SDS011;9124;48.144;17.098;2022-11-20T19:04:07;50.25;;;25.10;;
17997;SDS011;9124;48.144;17.098;2022-11-20T19:07:45;51.70;;;25.80;;
17997;SDS011;9124;48.144;17.098;2022-11-20T19:11:22;51.22;;;26.13;;
17997;SDS011;9124;48.144;17.098;2022-11-20T19:14:58;54.22;;;26.33;;
17997;SDS011;9124;48.144;17.098;2022-11-20T19:18:35;53.95;;;25.77;;
17997;SDS011;9124;48.144;17.098;2022-11-20T19:22:11;55.13;;;26.95;;
17997;SDS011;9124;48.144;17.098;2022-11-20T19:25:48;61.75;;;29.23;;
17997;SDS011;9124;48.144;17.098;2022-11-20T19:29:24;55.65;;;26.95;;
17997;SDS011;9124;48.144;17.098;2022-11-20T19:33:01;54.20;;;27.83;;
17997;SDS011;9124;48.144;17.098;2022-11-20T19:36:38;53.70;;;27.50;;
17997;SDS011;9124;48.144;17.098;2022-11-20T19:40:15;58.08;;;27.00;;
17997;SDS011;9124;48.144;17.098;2022-11-20T19:43:52;51.15;;;25.05;;
17997;SDS011;9124;48.144;17.098;2022-11-20T19:47:28;54.03;;;26.30;;
17997;SDS011;9124;48.144;17.098;2022-11-20T19:51:12;54.55;;;26.80;;
17997;SDS011;9124;48.144;17.098;2022-11-20T19:54:54;52.80;;;25.63;;
17997;SDS011;9124;48.144;17.098;2022-11-20T19:58:30;58.40;;;26.58;;
17997;SDS011;9124;48.144;17.098;2022-11-20T20:02:09;47.92;;;25.25;;
17997;SDS011;9124;48.144;17.098;2022-11-20T20:05:46;51.75;;;26.50;;
17997;SDS011;9124;48.144;17.098;2022-11-20T20:09:22;53.97;;;26.20;;
17997;SDS011;9124;48.144;17.098;2022-11-20T20:13:01;47.78;;;25.40;;
17997;SDS011;9124;48.144;17.098;2022-11-20T20:16:38;65.10;;;28.85;;
17997;SDS011;9124;48.144;17.098;2022-11-20T20:20:15;51.72;;;26.42;;
17997;SDS011;9124;48.144;17.098;2022-11-20T20:23:53;55.75;;;28.45;;
17997;SDS011;9124;48.144;17.098;2022-11-20T20:27:30;53.15;;;26.80;;
17997;SDS011;9124;48.144;17.098;2022-11-20T20:31:07;60.33;;;27.58;;
17997;SDS011;9124;48.144;17.098;2022-11-20T20:34:46;49.92;;;26.80;;
17997;SDS011;9124;48.144;17.098;2022-11-20T20:38:22;53.75;;;26.40;;
17997;SDS011;9124;48.144;17.098;2022-11-20T20:41:58;52.90;;;25.08;;
17997;SDS011;9124;48.144;17.098;2022-11-20T20:45:35;49.50;;;24.88;;
17997;SDS011;9124;48.144;17.098;2022-11-20T20:49:11;49.28;;;26.52;;
17997;SDS011;9124;48.144;17.098;2022-11-20T20:52:48;49.55;;;26.42;;
17997;SDS011;9124;48.144;17.098;2022-11-20T20:56:24;58.53;;;28.75;;
17997;SDS011;9124;48.144;17.098;2022-11-20T21:00:01;54.13;;;27.38;;
17997;SDS011;9124;48.144;17.098;2022-11-20T21:03:39;54.63;;;27.33;;
17997;SDS011;9124;48.144;17.098;2022-11-20T21:07:16;50.13;;;27.67;;
17997;SDS011;9124;48.144;17.098;2022-11-20T21:11:15;58.50;;;26.90;;
17997;SDS011;9124;48.144;17.098;2022-11-20T21:14:51;60.08;;;27.83;;
17997;SDS011;9124;48.144;17.098;2022-11-20T21:18:28;62.53;;;28.20;;
17997;SDS011;9124;48.144;17.098;2022-11-20T21:22:05;54.92;;;28.17;;
17997;SDS011;9124;48.144;17.098;2022-11-20T21:25:41;62.28;;;28.30;;
17997;SDS011;9124;48.144;17.098;2022-11-20T21:29:18;64.72;;;31.80;;
17997;SDS011;9124;48.144;17.098;2022-11-20T21:32:56;59.38;;;28.02;;
17997;SDS011;9124;48.144;17.098;2022-11-20T21:36:32;61.28;;;29.85;;
17997;SDS011;9124;48.144;17.098;2022-11-20T21:40:09;59.17;;;27.38;;
17997;SDS011;9124;48.144;17.098;2022-11-20T21:43:45;57.38;;;28.52;;
17997;SDS011;9124;48.144;17.098;2022-11-20T21:47:22;66.95;;;31.20;;
17997;SDS011;9124;48.144;17.098;2022-11-20T21:51:02;64.30;;;29.08;;
17997;SDS011;9124;48.144;17.098;2022-11-20T21:54:39;59.33;;;28.23;;
17997;SDS011;9124;48.144;17.098;2022-11-20T21:58:15;54.17;;;27.48;;
17997;SDS011;9124;48.144;17.098;2022-11-20T22:01:52;56.50;;;27.27;;
17997;SDS011;9124;48.144;17.098;2022-11-20T22:05:28;52.80;;;26.05;;
17997;SDS011;9124;48.144;17.098;2022-11-20T22:09:05;57.58;;;29.65;;
17997;SDS011;9124;48.144;17.098;2022-11-20T22:12:41;55.95;;;27.42;;
17997;SDS011;9124;48.144;17.098;2022-11-20T22:16:18;69.80;;;35.20;;
17997;SDS011;9124;48.144;17.098;2022-11-20T22:19:54;55.55;;;28.25;;
17997;SDS011;9124;48.144;17.098;2022-11-20T22:23:31;54.60;;;28.38;;
17997;SDS011;9124;48.144;17.098;2022-11-20T22:27:09;57.55;;;28.58;;
17997;SDS011;9124;48.144;17.098;2022-11-20T22:30:45;64.28;;;29.70;;
17997;SDS011;9124;48.144;17.098;2022-11-20T22:34:22;57.15;;;28.65;;
17997;SDS011;9124;48.144;17.098;2022-11-20T22:37:58;60.40;;;27.65;;
17997;SDS011;9124;48.144;17.098;2022-11-20T22:41:35;58.42;;;28.05;;
17997;SDS011;9124;48.144;17.098;2022-11-20T22:45:11;58.47;;;29.27;;
17997;SDS011;9124;48.144;17.098;2022-11-20T22:48:49;65.05;;;30.85;;
17997;SDS011;9124;48.144;17.098;2022-11-20T22:52:26;55.50;;;27.23;;
17997;SDS011;9124;48.144;17.098;2022-11-20T22:56:03;54.33;;;28.33;;
17997;SDS011;9124;48.144;17.098;2022-11-20T22:59:43;64.00;;;28.52;;
17997;SDS011;9124;48.144;17.098;2022-11-20T23:03:20;59.63;;;27.25;;
17997;SDS011;9124;48.144;17.098;2022-11-20T23:06:56;61.72;;;30.20;;
17997;SDS011;9124;48.144;17.098;2022-11-20T23:10:33;52.47;;;27.63;;
17997;SDS011;9124;48.144;17.098;2022-11-20T23:14:12;58.05;;;27.50;;
17997;SDS011;9124;48.144;17.098;2022-11-20T23:17:50;63.92;;;28.23;;
17997;SDS011;9124;48.144;17.098;2022-11-20T23:21:26;54.80;;;28.15;;